Time,TemperatureF,DewpointF,PressureIn,WindDirection,WindDirectionDegrees,WindSpeedMPH,WindSpeedGustMPH,Humidity,HourlyPrecipIn,Conditions,Clouds,dailyrainin,SoftwareType,DateUTC
2013-01-24 00:01:00,5.0,0.4,29.91,SE,135,0.0,0.0,81,0.00,OVC,,0.00,WeatherDisplay:10.37,2013-01-24 05:01:00,
2013-01-24 00:02:00,5.0,0.4,29.91,SE,134,0.0,0.0,81,0.00,-SN,,0.00,WeatherDisplay:10.37,2013-01-24 05:02:00,
2013-01-24 00:07:00,5.0,0.4,29.91,SE,134,0.0,0.0,81,0.00,-SN,,0.00,WeatherDisplay:10.37,2013-01-24 05:07:00,
2013-01-24 00:12:00,5.0,0.4,29.91,SE,134,0.0,0.0,81,0.00,-SN,,0.00,WeatherDisplay:10.37,2013-01-24 05:12:00,
2013-01-24 00:17:00,5.2,0.6,29.91,SE,134,0.0,0.0,81,0.00,-SN,,0.00,WeatherDisplay:10.37,2013-01-24 05:17:00,
2013-01-24 00:22:00,5.4,0.8,29.91,SE,134,0.0,0.0,81,0.00,-SN,,0.00,WeatherDisplay:10.37,2013-01-24 05:22:00,
2013-01-24 00:28:00,5.5,1.0,29.91,SE,134,0.0,0.0,81,0.00,-SN,,0.00,WeatherDisplay:10.37,2013-01-24 05:28:00,
2013-01-24 00:33:00,5.5,1.0,29.88,SE,134,0.0,0.0,81,0.00,-SN,,0.00,WeatherDisplay:10.37,2013-01-24 05:33:00,
2013-01-24 00:38:00,5.7,1.1,29.88,SE,134,0.0,0.0,81,0.00,-SN,,0.00,WeatherDisplay:10.37,2013-01-24 05:38:00,
2013-01-24 00:43:00,5.7,1.1,29.88,SE,134,0.0,0.0,81,0.00,-SN,,0.00,WeatherDisplay:10.37,2013-01-24 05:43:00,
2013-01-24 00:48:00,5.7,1.1,29.88,SE,134,0.0,0.0,81,0.00,-SN,,0.00,WeatherDisplay:10.37,2013-01-24 05:48:00,
2013-01-24 00:53:00,5.7,1.1,29.88,SE,134,0.0,0.0,81,0.00,-SN,,0.00,WeatherDisplay:10.37,2013-01-24 05:53:00,
2013-01-24 00:58:00,5.7,1.1,29.88,SE,134,0.0,0.0,81,0.00,-SN,,0.00,WeatherDisplay:10.37,2013-01-24 05:58:00,
2013-01-24 01:03:00,5.7,1.1,29.88,SE,134,0.0,0.0,81,0.00,-SN,,0.00,WeatherDisplay:10.37,2013-01-24 06:03:00,
2013-01-24 01:08:00,5.5,1.0,29.88,SE,134,0.0,0.0,81,0.00,-SN,,0.00,WeatherDisplay:10.37,2013-01-24 06:08:00,
2013-01-24 01:13:00,5.5,1.0,29.88,SE,135,0.0,0.0,81,0.00,-SN,,0.00,WeatherDisplay:10.37,2013-01-24 06:13:00,
2013-01-24 01:18:00,5.5,1.0,29.88,SE,134,0.0,0.0,81,0.00,-SN,,0.00,WeatherDisplay:10.37,2013-01-24 06:18:00,
2013-01-24 01:23:00,5.5,1.0,29.88,SE,134,0.0,0.0,81,0.00,-SN,,0.00,WeatherDisplay:10.37,2013-01-24 06:23:00,
2013-01-24 01:28:00,5.5,1.0,29.88,SE,134,0.0,0.0,81,0.00,-SN,,0.00,WeatherDisplay:10.37,2013-01-24 06:28:00,
2013-01-24 01:33:00,5.5,1.0,29.88,SE,134,0.0,0.0,81,0.00,-SN,,0.00,WeatherDisplay:10.37,2013-01-24 06:33:00,
2013-01-24 01:38:00,5.5,1.0,29.88,SE,135,0.0,0.0,81,0.00,-SN,,0.00,WeatherDisplay:10.37,2013-01-24 06:38:00,
2013-01-24 01:43:00,5.5,1.0,29.88,SE,135,0.0,0.0,81,0.00,-SN,,0.00,WeatherDisplay:10.37,2013-01-24 06:43:00,
2013-01-24 01:48:00,5.7,1.1,29.88,SE,134,0.0,0.0,81,0.00,-SN,,0.00,WeatherDisplay:10.37,2013-01-24 06:48:00,
2013-01-24 01:53:00,5.7,1.1,29.88,SE,134,0.0,0.0,81,0.00,-SN,,0.00,WeatherDisplay:10.37,2013-01-24 06:53:00,
2013-01-24 01:58:00,5.9,1.3,29.88,SE,134,0.0,0.0,81,0.00,-SN,,0.00,WeatherDisplay:10.37,2013-01-24 06:58:00,
2013-01-24 02:03:00,5.9,1.3,29.88,SE,135,0.0,0.0,81,0.00,-SN,,0.00,WeatherDisplay:10.37,2013-01-24 07:03:00,
2013-01-24 02:08:00,5.9,1.3,29.88,SE,135,0.0,0.0,81,0.00,-SN,,0.00,WeatherDisplay:10.37,2013-01-24 07:08:00,
2013-01-24 02:13:00,5.9,1.3,29.88,SE,134,0.0,0.0,81,0.00,-SN,,0.00,WeatherDisplay:10.37,2013-01-24 07:13:00,
2013-01-24 02:19:00,5.9,1.3,29.88,SE,135,0.0,0.0,81,0.00,-SN,,0.00,WeatherDisplay:10.37,2013-01-24 07:19:00,
2013-01-24 02:24:00,5.9,1.3,29.88,SE,134,0.0,0.0,81,0.00,-SN,,0.00,WeatherDisplay:10.37,2013-01-24 07:24:00,
2013-01-24 02:29:00,5.9,1.3,29.88,SE,135,0.0,0.0,81,0.00,-SN,,0.00,WeatherDisplay:10.37,2013-01-24 07:29:00,
2013-01-24 02:34:00,5.9,1.3,29.88,SE,135,0.0,0.0,81,0.00,-SN,,0.00,WeatherDisplay:10.37,2013-01-24 07:34:00,
2013-01-24 02:39:00,5.7,1.1,29.88,SE,134,0.0,0.0,81,0.00,-SN,,0.00,WeatherDisplay:10.37,2013-01-24 07:39:00,
2013-01-24 02:44:00,5.7,1.1,29.88,SE,134,0.0,0.0,81,0.00,-SN,,0.00,WeatherDisplay:10.37,2013-01-24 07:44:00,
2013-01-24 02:49:00,5.7,1.1,29.91,SE,134,0.0,0.0,81,0.00,-SN,,0.00,WeatherDisplay:10.37,2013-01-24 07:49:00,
2013-01-24 02:54:00,5.5,1.0,29.91,SE,134,0.0,0.0,81,0.00,-SN,,0.00,WeatherDisplay:10.37,2013-01-24 07:54:00,
2013-01-24 02:59:00,5.7,1.1,29.91,SE,134,0.0,0.0,81,0.00,-SN,,0.00,WeatherDisplay:10.37,2013-01-24 07:59:00,
2013-01-24 03:04:00,5.7,1.1,29.91,SE,135,0.0,0.0,81,0.00,-SN,,0.00,WeatherDisplay:10.37,2013-01-24 08:04:00,
2013-01-24 03:09:00,5.9,1.3,29.91,SE,134,0.0,0.0,81,0.00,-SN,,0.00,WeatherDisplay:10.37,2013-01-24 08:09:00,
2013-01-24 03:14:00,5.9,1.3,29.91,SE,134,0.0,0.0,81,0.00,-SN,,0.00,WeatherDisplay:10.37,2013-01-24 08:14:00,
2013-01-24 03:19:00,6.1,1.5,29.91,SE,134,0.0,0.0,81,0.00,-SN,,0.00,WeatherDisplay:10.37,2013-01-24 08:19:00,
2013-01-24 03:24:00,6.1,1.5,29.91,SE,134,0.0,0.0,81,0.00,-SN,,0.00,WeatherDisplay:10.37,2013-01-24 08:24:00,
2013-01-24 03:29:00,6.3,1.7,29.91,SE,134,0.0,0.0,81,0.00,-SN,,0.00,WeatherDisplay:10.37,2013-01-24 08:29:00,
2013-01-24 03:34:00,6.4,1.9,29.91,SE,135,0.0,0.0,81,0.00,-SN,,0.00,WeatherDisplay:10.37,2013-01-24 08:34:00,
2013-01-24 03:39:00,6.6,2.0,29.91,SE,134,0.0,0.0,81,0.00,-SN,,0.00,WeatherDisplay:10.37,2013-01-24 08:39:00,
2013-01-24 03:44:00,6.8,2.2,29.91,SE,134,0.0,0.0,81,0.00,-SN,,0.00,WeatherDisplay:10.37,2013-01-24 08:44:00,
2013-01-24 03:49:00,7.0,2.4,29.91,SE,134,0.0,0.0,81,0.00,-SN,,0.00,WeatherDisplay:10.37,2013-01-24 08:49:00,
2013-01-24 03:54:00,7.2,2.6,29.91,SE,134,0.0,0.0,81,0.00,-SN,,0.00,WeatherDisplay:10.37,2013-01-24 08:54:00,
2013-01-24 03:59:00,7.3,2.7,29.91,SE,134,0.0,0.0,81,0.00,-SN,,0.00,WeatherDisplay:10.37,2013-01-24 08:59:00,
2013-01-24 04:04:00,7.3,2.7,29.91,SE,134,0.0,0.0,81,0.00,-SN,,0.00,WeatherDisplay:10.37,2013-01-24 09:04:00,
2013-01-24 04:09:00,7.3,2.7,29.91,SE,135,0.0,0.0,81,0.00,-SN,,0.00,WeatherDisplay:10.37,2013-01-24 09:09:00,
2013-01-24 04:14:00,7.2,2.6,29.91,SE,135,0.0,0.0,81,0.00,-SN,,0.00,WeatherDisplay:10.37,2013-01-24 09:14:00,
2013-01-24 04:19:00,7.0,2.4,29.91,SE,134,0.0,0.0,81,0.00,-SN,,0.00,WeatherDisplay:10.37,2013-01-24 09:19:00,
2013-01-24 04:24:00,6.8,2.2,29.91,SE,134,0.0,0.0,81,0.00,-SN,,0.00,WeatherDisplay:10.37,2013-01-24 09:24:00,
2013-01-24 04:29:00,6.4,1.9,29.91,SE,134,0.0,0.0,81,0.00,-SN,,0.00,WeatherDisplay:10.37,2013-01-24 09:29:00,
2013-01-24 04:35:00,6.3,1.7,29.94,SE,134,0.0,0.0,81,0.00,-SN,,0.00,WeatherDisplay:10.37,2013-01-24 09:35:00,
2013-01-24 04:40:00,6.1,1.5,29.94,SE,134,0.0,0.0,81,0.00,-SN,,0.00,WeatherDisplay:10.37,2013-01-24 09:40:00,
2013-01-24 04:45:00,5.9,1.3,29.94,SE,134,0.0,0.0,81,0.00,-SN,,0.00,WeatherDisplay:10.37,2013-01-24 09:45:00,
2013-01-24 04:50:00,5.9,1.3,29.94,SE,135,0.0,0.0,81,0.00,-SN,,0.00,WeatherDisplay:10.37,2013-01-24 09:50:00,
2013-01-24 04:55:00,5.7,1.1,29.94,SE,134,0.0,0.0,81,0.00,-SN,,0.00,WeatherDisplay:10.37,2013-01-24 09:55:00,
2013-01-24 05:00:00,5.5,1.0,29.94,SE,135,0.0,0.0,81,0.00,-SN,,0.00,WeatherDisplay:10.37,2013-01-24 10:00:00,
2013-01-24 05:05:00,5.5,1.0,29.94,SE,134,0.0,0.0,81,0.00,-SN,,0.00,WeatherDisplay:10.37,2013-01-24 10:05:00,
2013-01-24 05:10:00,5.5,1.0,29.94,SE,135,0.0,0.0,81,0.00,-SN,,0.00,WeatherDisplay:10.37,2013-01-24 10:10:00,
2013-01-24 05:15:00,5.9,1.3,29.94,NNW,331,0.0,0.0,81,0.00,-SN,,0.00,WeatherDisplay:10.37,2013-01-24 10:15:00,
2013-01-24 05:20:00,6.3,1.7,29.94,NW,307,0.0,0.0,81,0.00,-SN,,0.00,WeatherDisplay:10.37,2013-01-24 10:20:00,
2013-01-24 05:25:00,6.8,2.2,29.94,NW,323,6.3,0.0,81,0.00,-SN,,0.00,WeatherDisplay:10.37,2013-01-24 10:25:00,
2013-01-24 05:30:00,7.3,2.7,29.94,WNW,293,3.5,3.5,81,0.00,-SN,,0.00,WeatherDisplay:10.37,2013-01-24 10:30:00,
2013-01-24 05:35:00,7.7,3.1,29.97,NW,322,3.6,3.6,81,0.00,-SN,,0.00,WeatherDisplay:10.37,2013-01-24 10:35:00,
2013-01-24 05:40:00,7.9,3.3,29.97,NW,311,2.3,0.0,81,0.00,-SN,,0.00,WeatherDisplay:10.37,2013-01-24 10:40:00,
2013-01-24 05:45:00,7.9,3.3,29.97,NW,321,3.5,0.0,81,0.00,-SN,,0.00,WeatherDisplay:10.37,2013-01-24 10:45:00,
2013-01-24 05:50:00,8.1,3.4,29.97,NW,321,3.5,4.0,81,0.00,-SN,,0.00,WeatherDisplay:10.37,2013-01-24 10:50:00,
2013-01-24 05:55:00,8.1,3.4,29.97,WNW,288,5.8,5.8,81,0.00,-SN,,0.00,WeatherDisplay:10.37,2013-01-24 10:55:00,
2013-01-24 06:00:00,8.1,3.4,29.97,NW,305,8.1,8.1,81,0.00,-SN,,0.00,WeatherDisplay:10.37,2013-01-24 11:00:00,
2013-01-24 06:05:00,8.1,3.4,29.97,WNW,302,3.6,0.0,81,0.00,-SN,,0.00,WeatherDisplay:10.37,2013-01-24 11:05:00,
2013-01-24 06:10:00,8.1,3.4,29.97,NW,304,5.4,0.0,81,0.00,-SN,,0.00,WeatherDisplay:10.37,2013-01-24 11:10:00,
2013-01-24 06:15:00,8.2,3.6,29.97,NW,326,8.1,8.1,81,0.00,-SN,,0.00,WeatherDisplay:10.37,2013-01-24 11:15:00,
2013-01-24 06:20:00,8.2,3.6,30.00,NW,323,9.6,0.0,81,0.00,-SN,,0.00,WeatherDisplay:10.37,2013-01-24 11:20:00,
2013-01-24 06:25:00,8.4,3.8,30.00,NNW,343,5.8,5.8,81,0.00,-SN,,0.00,WeatherDisplay:10.37,2013-01-24 11:25:00,
2013-01-24 06:30:00,8.2,3.6,30.00,NW,312,5.8,5.8,81,0.00,-SN,,0.00,WeatherDisplay:10.37,2013-01-24 11:30:00,
2013-01-24 06:35:00,8.4,3.8,30.00,NW,312,5.8,5.8,81,0.00,-SN,,0.00,WeatherDisplay:10.37,2013-01-24 11:35:00,
2013-01-24 06:40:00,8.4,3.8,30.00,NW,312,3.5,0.0,81,0.00,-SN,,0.00,WeatherDisplay:10.37,2013-01-24 11:40:00,
2013-01-24 06:45:00,8.4,3.8,30.00,NW,312,3.5,0.0,81,0.00,-SN,,0.00,WeatherDisplay:10.37,2013-01-24 11:45:00,
2013-01-24 06:50:00,8.4,3.8,30.03,NW,326,8.1,8.1,81,0.00,-SN,,0.00,WeatherDisplay:10.37,2013-01-24 11:50:00,
2013-01-24 06:55:00,8.2,3.6,30.03,NW,326,3.6,3.6,81,0.00,-SN,,0.00,WeatherDisplay:10.37,2013-01-24 11:55:00,
2013-01-24 07:01:00,8.2,3.6,30.03,NNW,337,5.8,5.8,81,0.00,-SN,,0.00,WeatherDisplay:10.37,2013-01-24 12:01:00,
2013-01-24 07:06:00,8.1,3.4,30.03,North,353,5.8,5.8,81,0.00,-SN,,0.00,WeatherDisplay:10.37,2013-01-24 12:06:00,
2013-01-24 07:11:00,8.1,3.4,30.03,NNW,344,5.8,5.8,81,0.00,-SN,,0.00,WeatherDisplay:10.37,2013-01-24 12:11:00,
2013-01-24 07:16:00,7.9,3.3,30.03,WNW,294,5.8,5.8,81,0.00,-SN,,0.00,WeatherDisplay:10.37,2013-01-24 12:16:00,
2013-01-24 07:21:00,7.9,3.3,30.03,NW,312,8.1,8.1,81,0.00,-SN,,0.00,WeatherDisplay:10.37,2013-01-24 12:21:00,
2013-01-24 07:26:00,7.5,2.9,30.03,NNW,337,6.9,6.9,81,0.00,-SN,,0.00,WeatherDisplay:10.37,2013-01-24 12:26:00,
2013-01-24 07:31:00,7.5,2.9,30.03,WNW,297,5.8,5.8,81,0.00,-SN,,0.00,WeatherDisplay:10.37,2013-01-24 12:31:00,
2013-01-24 07:36:00,7.5,2.9,30.06,NW,313,3.5,3.5,81,0.00,-SN,,0.00,WeatherDisplay:10.37,2013-01-24 12:36:00,
2013-01-24 07:41:00,7.7,3.1,30.06,NW,313,3.5,0.0,81,0.00,-SN,,0.00,WeatherDisplay:10.37,2013-01-24 12:41:00,
2013-01-24 07:46:00,7.7,3.1,30.06,NW,316,0.0,0.0,81,0.00,-SN,,0.00,WeatherDisplay:10.37,2013-01-24 12:46:00,
2013-01-24 07:51:00,7.9,3.3,30.06,WNW,287,3.5,3.5,81,0.00,-SN,,0.00,WeatherDisplay:10.37,2013-01-24 12:51:00,
2013-01-24 07:56:00,7.9,3.3,30.06,WNW,297,4.6,0.0,81,0.00,-SN,,0.00,WeatherDisplay:10.37,2013-01-24 12:56:00,
2013-01-24 08:01:00,7.9,3.3,30.06,NNW,345,3.5,3.5,81,0.00,-SN,,0.00,WeatherDisplay:10.37,2013-01-24 13:01:00,
2013-01-24 08:06:00,8.1,3.4,30.06,NNW,333,0.0,0.0,81,0.00,-SN,,0.00,WeatherDisplay:10.37,2013-01-24 13:06:00,
2013-01-24 08:11:00,8.1,3.4,30.06,NW,304,3.6,3.6,81,0.00,-SN,,0.00,WeatherDisplay:10.37,2013-01-24 13:11:00,
2013-01-24 08:16:00,8.1,3.4,30.06,WNW,303,5.8,5.8,81,0.00,-SN,,0.00,WeatherDisplay:10.37,2013-01-24 13:16:00,
2013-01-24 08:21:00,8.2,3.6,30.09,NW,321,5.8,5.8,81,0.00,-SN,,0.00,WeatherDisplay:10.37,2013-01-24 13:21:00,
2013-01-24 08:26:00,8.4,3.8,30.09,NW,311,5.4,5.4,81,0.00,-SN,,0.00,WeatherDisplay:10.37,2013-01-24 13:26:00,
2013-01-24 08:31:00,8.6,4.0,30.09,NNW,341,5.8,5.8,81,0.00,-SN,,0.00,WeatherDisplay:10.37,2013-01-24 13:31:00,
2013-01-24 08:36:00,8.6,4.0,30.09,NNW,328,8.1,8.1,81,0.00,-SN,,0.00,WeatherDisplay:10.37,2013-01-24 13:36:00,
2013-01-24 08:41:00,8.8,4.1,30.09,NW,324,9.2,9.2,81,0.00,-SN,,0.00,WeatherDisplay:10.37,2013-01-24 13:41:00,
2013-01-24 08:46:00,9.0,4.3,30.09,WNW,303,5.8,6.3,81,0.00,-SN,,0.00,WeatherDisplay:10.37,2013-01-24 13:46:00,
2013-01-24 08:51:00,9.1,4.5,30.09,NNW,335,10.1,10.1,81,0.00,-SN,,0.00,WeatherDisplay:10.37,2013-01-24 13:51:00,
2013-01-24 08:56:00,9.0,4.3,30.09,WNW,302,6.9,6.9,81,0.00,-SN,,0.00,WeatherDisplay:10.37,2013-01-24 13:56:00,
2013-01-24 09:01:00,9.0,4.3,30.09,NNW,328,8.1,8.1,81,0.00,-SN,,0.00,WeatherDisplay:10.37,2013-01-24 14:01:00,
2013-01-24 09:06:00,8.8,4.1,30.12,NW,315,5.8,5.8,81,0.00,-SN,,0.00,WeatherDisplay:10.37,2013-01-24 14:06:00,
2013-01-24 09:11:00,8.6,4.0,30.12,NNW,341,8.1,8.1,81,0.00,-SN,,0.00,WeatherDisplay:10.37,2013-01-24 14:11:00,
2013-01-24 09:16:00,8.6,4.0,30.12,WNW,294,5.8,5.8,81,0.00,-SN,,0.00,WeatherDisplay:10.37,2013-01-24 14:16:00,
2013-01-24 09:21:00,8.4,3.8,30.12,WNW,303,5.8,5.8,81,0.00,-SN,,0.00,WeatherDisplay:10.37,2013-01-24 14:21:00,
2013-01-24 09:26:00,8.6,4.0,30.12,NW,320,2.3,0.0,81,0.00,-SN,,0.00,WeatherDisplay:10.37,2013-01-24 14:26:00,
2013-01-24 09:31:00,8.8,4.1,30.12,NW,324,8.1,8.1,81,0.00,-SN,,0.00,WeatherDisplay:10.37,2013-01-24 14:31:00,
2013-01-24 09:36:00,8.8,4.1,30.12,NW,316,6.3,6.3,81,0.00,-SN,,0.00,WeatherDisplay:10.37,2013-01-24 14:36:00,
2013-01-24 09:41:00,9.1,4.5,30.12,NNW,330,11.5,11.5,81,0.00,-SN,,0.00,WeatherDisplay:10.37,2013-01-24 14:41:00,
2013-01-24 09:46:00,9.3,4.7,30.12,NW,305,8.1,8.1,81,0.00,-SN,,0.00,WeatherDisplay:10.37,2013-01-24 14:46:00,
2013-01-24 09:51:00,9.3,4.7,30.15,NNW,333,9.2,9.2,81,0.00,-SN,,0.00,WeatherDisplay:10.37,2013-01-24 14:51:00,
2013-01-24 09:56:00,9.3,4.7,30.15,NNW,343,10.4,10.4,81,0.00,-SN,,0.00,WeatherDisplay:10.37,2013-01-24 14:56:00,
2013-01-24 10:01:00,9.7,5.0,30.15,West,278,9.2,9.2,81,0.00,-SN,,0.00,WeatherDisplay:10.37,2013-01-24 15:01:00,
2013-01-24 10:06:00,10.0,5.4,30.15,North,353,5.8,6.3,81,0.00,-SN,,0.00,WeatherDisplay:10.37,2013-01-24 15:06:00,
2013-01-24 10:11:00,10.0,5.4,30.15,North,0,11.5,11.5,81,0.00,-SN,,0.00,WeatherDisplay:10.37,2013-01-24 15:11:00,
2013-01-24 10:16:00,10.2,5.5,30.15,WNW,303,6.3,6.3,81,0.00,-SN,,0.00,WeatherDisplay:10.37,2013-01-24 15:16:00,
2013-01-24 10:21:00,11.1,6.4,30.15,NNW,346,8.1,8.1,81,0.00,SCT,,0.00,WeatherDisplay:10.37,2013-01-24 15:21:00,
2013-01-24 10:26:00,11.3,6.6,30.15,NNW,346,10.4,10.4,81,0.00,SCT,,0.00,WeatherDisplay:10.37,2013-01-24 15:26:00,
2013-01-24 10:31:00,11.3,6.6,30.15,NNW,338,10.4,10.4,81,0.00,SCT,,0.00,WeatherDisplay:10.37,2013-01-24 15:31:00,
2013-01-24 10:36:00,11.8,7.1,30.18,NNW,344,10.4,10.4,81,0.00,SCT,,0.00,WeatherDisplay:10.37,2013-01-24 15:36:00,
2013-01-24 10:41:00,12.2,7.5,30.18,NNW,335,11.5,11.5,81,0.00,SCT,,0.00,WeatherDisplay:10.37,2013-01-24 15:41:00,
2013-01-24 10:46:00,11.8,7.1,30.18,NNW,329,11.5,11.5,81,0.00,SCT,,0.00,WeatherDisplay:10.37,2013-01-24 15:46:00,
2013-01-24 10:51:00,11.5,6.8,30.18,NW,316,10.4,10.4,81,0.00,SCT,,0.00,WeatherDisplay:10.37,2013-01-24 15:51:00,
2013-01-24 10:56:00,11.7,7.0,30.18,NW,312,9.2,9.2,81,0.00,SCT,,0.00,WeatherDisplay:10.37,2013-01-24 15:56:00,
2013-01-24 11:01:00,12.0,7.3,30.18,NNW,329,9.2,9.2,81,0.00,FEW,,0.00,WeatherDisplay:10.37,2013-01-24 16:01:00,
2013-01-24 11:06:00,12.4,7.7,30.18,NNW,340,11.5,11.5,81,0.00,FEW,,0.00,WeatherDisplay:10.37,2013-01-24 16:06:00,
2013-01-24 11:11:00,12.6,7.8,30.18,West,280,12.7,12.7,81,0.00,FEW,,0.00,WeatherDisplay:10.37,2013-01-24 16:11:00,
2013-01-24 11:16:00,12.6,7.8,30.18,NNW,342,8.1,8.1,81,0.00,FEW,,0.00,WeatherDisplay:10.37,2013-01-24 16:16:00,
2013-01-24 11:21:00,12.6,7.8,30.21,NNW,340,12.7,12.7,81,0.00,FEW,,0.00,WeatherDisplay:10.37,2013-01-24 16:21:00,
2013-01-24 11:26:00,12.4,7.7,30.21,WNW,302,9.2,9.2,81,0.00,FEW,,0.00,WeatherDisplay:10.37,2013-01-24 16:26:00,
2013-01-24 11:32:00,12.6,7.8,30.21,NNW,343,15.4,15.4,81,0.00,FEW,,0.00,WeatherDisplay:10.37,2013-01-24 16:32:00,
2013-01-24 11:37:00,12.7,8.0,30.21,NNW,345,15.0,15.0,81,0.00,FEW,,0.00,WeatherDisplay:10.37,2013-01-24 16:37:00,
2013-01-24 11:42:00,12.6,7.8,30.21,North,353,13.8,13.8,81,0.00,FEW,,0.00,WeatherDisplay:10.37,2013-01-24 16:42:00,
2013-01-24 11:47:00,12.9,8.2,30.21,NW,320,13.2,13.2,81,0.00,FEW,,0.00,WeatherDisplay:10.37,2013-01-24 16:47:00,
2013-01-24 11:52:00,13.8,9.1,30.21,NNW,336,9.2,9.2,81,0.00,FEW,,0.00,WeatherDisplay:10.37,2013-01-24 16:52:00,
2013-01-24 11:57:00,14.4,-3.6,30.21,NNW,338,11.5,11.5,44,0.00,FEW,,0.00,WeatherDisplay:10.37,2013-01-24 16:57:00,
2013-01-24 12:02:00,13.8,-4.1,30.21,NW,326,9.2,9.2,44,0.00,FEW,,0.00,WeatherDisplay:10.37,2013-01-24 17:02:00,
2013-01-24 12:07:00,14.4,-3.1,30.21,NNW,340,10.4,10.4,45,0.00,FEW,,0.00,WeatherDisplay:10.37,2013-01-24 17:07:00,
2013-01-24 12:12:00,15.3,-2.3,30.21,NNW,342,11.5,11.5,45,0.00,FEW,,0.00,WeatherDisplay:10.37,2013-01-24 17:12:00,
2013-01-24 12:17:00,15.3,-2.8,30.21,NW,315,12.7,12.7,44,0.00,FEW,,0.00,WeatherDisplay:10.37,2013-01-24 17:17:00,
2013-01-24 12:22:00,14.5,-3.5,30.21,NNW,334,11.5,11.5,44,0.00,BKN,,0.00,WeatherDisplay:10.37,2013-01-24 17:22:00,
2013-01-24 12:27:00,14.2,-3.3,30.21,NW,305,12.7,12.7,45,0.00,BKN,,0.00,WeatherDisplay:10.37,2013-01-24 17:27:00,
2013-01-24 12:32:00,13.6,-3.8,30.21,NNW,336,17.3,17.3,45,0.00,BKN,,0.00,WeatherDisplay:10.37,2013-01-24 17:32:00,
2013-01-24 12:37:00,13.8,-3.6,30.21,NNW,330,12.7,12.7,45,0.00,BKN,,0.00,WeatherDisplay:10.37,2013-01-24 17:37:00,
2013-01-24 12:42:00,13.8,-3.6,30.21,North,350,12.3,12.3,45,0.00,BKN,,0.00,WeatherDisplay:10.37,2013-01-24 17:42:00,
2013-01-24 12:47:00,13.6,-3.8,30.21,NW,304,17.3,17.3,45,0.00,BKN,,0.00,WeatherDisplay:10.37,2013-01-24 17:47:00,
2013-01-24 12:52:00,14.2,-2.8,30.21,North,353,10.9,10.9,46,0.00,BKN,,0.00,WeatherDisplay:10.37,2013-01-24 17:52:00,
2013-01-24 12:57:00,14.7,-2.8,30.21,NNW,340,17.3,17.3,45,0.00,BKN,,0.00,WeatherDisplay:10.37,2013-01-24 17:57:00,
2013-01-24 13:02:00,14.5,-3.0,30.21,NNW,328,14.1,14.1,45,0.00,BKN,,0.00,WeatherDisplay:10.37,2013-01-24 18:02:00,
2013-01-24 13:07:00,14.4,-3.6,30.21,NNW,344,18.4,18.4,44,0.00,BKN,,0.00,WeatherDisplay:10.37,2013-01-24 18:07:00,
2013-01-24 13:12:00,13.8,-3.6,30.21,NNW,341,13.8,13.8,45,0.00,BKN,,0.00,WeatherDisplay:10.37,2013-01-24 18:12:00,
2013-01-24 13:17:00,13.3,-4.1,30.21,NW,322,16.1,16.1,45,0.00,BKN,,0.00,WeatherDisplay:10.37,2013-01-24 18:17:00,
2013-01-24 13:22:00,12.7,-4.6,30.21,NNW,335,11.5,11.5,45,0.00,BKN,,0.00,WeatherDisplay:10.37,2013-01-24 18:22:00,
2013-01-24 13:27:00,12.6,-4.8,30.21,NW,320,12.7,12.7,45,0.00,BKN,,0.00,WeatherDisplay:10.37,2013-01-24 18:27:00,
2013-01-24 13:32:00,12.7,-4.6,30.21,NW,318,15.0,15.0,45,0.00,BKN,,0.00,WeatherDisplay:10.37,2013-01-24 18:32:00,
2013-01-24 13:37:00,13.1,-4.3,30.21,NNW,338,15.0,15.0,45,0.00,BKN,,0.00,WeatherDisplay:10.37,2013-01-24 18:37:00,
2013-01-24 13:42:00,14.4,-3.6,30.21,West,280,9.2,9.2,44,0.00,BKN,,0.00,WeatherDisplay:10.37,2013-01-24 18:42:00,
2013-01-24 13:47:00,16.0,-2.6,30.21,WNW,291,12.7,12.7,43,0.00,BKN,,0.00,WeatherDisplay:10.37,2013-01-24 18:47:00,
2013-01-24 13:52:00,16.5,-2.1,30.21,NNW,339,14.1,14.1,43,0.00,BKN,,0.00,WeatherDisplay:10.37,2013-01-24 18:52:00,
2013-01-24 13:57:00,16.2,-4.0,30.21,NW,315,11.5,11.5,40,0.00,BKN,,0.00,WeatherDisplay:10.37,2013-01-24 18:57:00,
2013-01-24 14:02:00,15.8,-4.3,30.21,WNW,300,18.4,18.4,40,0.00,OVC,,0.00,WeatherDisplay:10.37,2013-01-24 19:02:00,
2013-01-24 14:07:00,15.3,-3.8,30.21,NNW,330,10.4,10.4,42,0.00,OVC,,0.00,WeatherDisplay:10.37,2013-01-24 19:07:00,
2013-01-24 14:12:00,14.9,-4.1,30.21,North,357,17.3,17.3,42,0.00,OVC,,0.00,WeatherDisplay:10.37,2013-01-24 19:12:00,
2013-01-24 14:17:00,14.0,-4.9,30.21,NW,321,11.5,11.5,42,0.00,OVC,,0.00,WeatherDisplay:10.37,2013-01-24 19:17:00,
2013-01-24 14:22:00,13.6,-5.2,30.21,North,357,15.4,15.4,42,0.00,OVC,,0.00,WeatherDisplay:10.37,2013-01-24 19:22:00,
2013-01-24 14:27:00,13.6,-5.2,30.21,NW,325,17.3,17.3,42,0.00,OVC,,0.00,WeatherDisplay:10.37,2013-01-24 19:27:00,
2013-01-24 14:32:00,13.6,-5.2,30.21,NW,317,13.6,13.6,42,0.00,OVC,,0.00,WeatherDisplay:10.37,2013-01-24 19:32:00,
2013-01-24 14:37:00,13.6,-5.2,30.21,NNW,333,8.7,8.7,42,0.00,OVC,,0.00,WeatherDisplay:10.37,2013-01-24 19:37:00,
2013-01-24 14:42:00,13.8,-5.1,30.21,NNW,342,12.7,12.7,42,0.00,OVC,,0.00,WeatherDisplay:10.37,2013-01-24 19:42:00,
2013-01-24 14:47:00,13.8,-3.6,30.21,North,350,12.7,12.7,45,0.00,OVC,,0.00,WeatherDisplay:10.37,2013-01-24 19:47:00,
2013-01-24 14:52:00,14.5,-3.5,30.21,NW,325,11.5,11.5,44,0.00,OVC,,0.00,WeatherDisplay:10.37,2013-01-24 19:52:00,
2013-01-24 14:57:00,15.3,-2.8,30.21,NW,324,12.7,12.7,44,0.00,OVC,,0.00,WeatherDisplay:10.37,2013-01-24 19:57:00,
2013-01-24 15:02:00,15.6,-3.9,30.21,NNW,341,9.2,9.2,41,0.00,OVC,,0.00,WeatherDisplay:10.37,2013-01-24 20:02:00,
2013-01-24 15:07:00,16.2,-2.9,30.24,NW,320,12.7,12.7,42,0.00,OVC,,0.00,WeatherDisplay:10.37,2013-01-24 20:07:00,
2013-01-24 15:12:00,16.2,-2.9,30.24,North,1,10.1,10.1,42,0.00,OVC,,0.00,WeatherDisplay:10.37,2013-01-24 20:12:00,
2013-01-24 15:17:00,15.8,-4.8,30.24,WNW,290,15.0,15.0,39,0.00,OVC,,0.00,WeatherDisplay:10.37,2013-01-24 20:17:00,
2013-01-24 15:22:00,14.7,-6.3,30.24,North,349,19.6,19.6,38,0.00,OVC,,0.00,WeatherDisplay:10.37,2013-01-24 20:22:00,
2013-01-24 15:27:00,14.0,-7.0,30.24,NNW,340,15.0,15.0,38,0.00,OVC,,0.00,WeatherDisplay:10.37,2013-01-24 20:27:00,
2013-01-24 15:32:00,13.8,-7.2,30.24,NW,320,12.7,12.7,38,0.00,OVC,,0.00,WeatherDisplay:10.37,2013-01-24 20:32:00,
2013-01-24 15:37:00,14.0,-7.0,30.24,WNW,301,11.5,11.5,38,0.00,OVC,,0.00,WeatherDisplay:10.37,2013-01-24 20:37:00,
2013-01-24 15:42:00,14.4,-6.7,30.24,NNE,12,12.7,12.7,38,0.00,OVC,,0.00,WeatherDisplay:10.37,2013-01-24 20:42:00,
2013-01-24 15:47:00,14.4,-6.7,30.24,North,0,10.9,10.9,38,0.00,OVC,,0.00,WeatherDisplay:10.37,2013-01-24 20:47:00,
2013-01-24 15:52:00,14.2,-6.8,30.24,NW,315,12.7,12.7,38,0.00,OVC,,0.00,WeatherDisplay:10.37,2013-01-24 20:52:00,
2013-01-24 15:57:00,14.4,-7.2,30.24,NNW,339,12.7,12.7,37,0.00,OVC,,0.00,WeatherDisplay:10.37,2013-01-24 20:57:00,
2013-01-24 16:02:00,14.4,-7.2,30.24,NNW,345,18.4,18.4,37,0.00,OVC,,0.00,WeatherDisplay:10.37,2013-01-24 21:02:00,
2013-01-24 16:07:00,14.2,-7.9,30.24,NNW,342,15.0,15.0,36,0.00,OVC,,0.00,WeatherDisplay:10.37,2013-01-24 21:07:00,
2013-01-24 16:12:00,13.8,-8.3,30.24,North,357,10.4,10.4,36,0.00,OVC,,0.00,WeatherDisplay:10.37,2013-01-24 21:12:00,
2013-01-24 16:17:00,13.6,-8.4,30.24,NNW,332,9.2,9.2,36,0.00,OVC,,0.00,WeatherDisplay:10.37,2013-01-24 21:17:00,
2013-01-24 16:22:00,13.5,-8.6,30.24,NNW,345,11.5,11.5,36,0.00,OVC,,0.00,WeatherDisplay:10.37,2013-01-24 21:22:00,
2013-01-24 16:27:00,13.5,-8.6,30.24,NW,322,13.8,13.8,36,0.00,OVC,,0.00,WeatherDisplay:10.37,2013-01-24 21:27:00,
2013-01-24 16:32:00,13.5,-8.6,30.24,NW,308,8.1,8.1,36,0.00,OVC,,0.00,WeatherDisplay:10.37,2013-01-24 21:32:00,
2013-01-24 16:37:00,13.3,-8.7,30.24,NNW,330,8.1,8.1,36,0.00,OVC,,0.00,WeatherDisplay:10.37,2013-01-24 21:37:00,
2013-01-24 16:42:00,13.3,-8.7,30.24,NW,314,8.1,8.1,36,0.00,OVC,,0.00,WeatherDisplay:10.37,2013-01-24 21:42:00,
2013-01-24 16:47:00,13.1,-8.9,30.24,West,274,15.0,15.0,36,0.00,OVC,,0.00,WeatherDisplay:10.37,2013-01-24 21:47:00,
2013-01-24 16:52:00,12.9,-9.1,30.27,West,279,10.4,10.4,36,0.00,OVC,,0.00,WeatherDisplay:10.37,2013-01-24 21:52:00,
2013-01-24 16:57:00,12.7,-9.2,30.27,NNW,333,15.0,15.0,36,0.00,OVC,,0.00,WeatherDisplay:10.37,2013-01-24 21:57:00,
2013-01-24 17:02:00,12.7,-9.2,30.27,NW,317,10.4,10.4,36,0.00,OVC,,0.00,WeatherDisplay:10.37,2013-01-24 22:02:00,
2013-01-24 17:07:00,12.4,-9.6,30.27,NW,304,10.4,10.4,36,0.00,OVC,,0.00,WeatherDisplay:10.37,2013-01-24 22:07:00,
2013-01-24 17:12:00,12.0,-9.9,30.27,WNW,297,9.2,9.2,36,0.00,OVC,,0.00,WeatherDisplay:10.37,2013-01-24 22:12:00,
2013-01-24 17:17:00,12.0,-9.9,30.27,West,259,10.4,10.4,36,0.00,OVC,,0.00,WeatherDisplay:10.37,2013-01-24 22:17:00,
2013-01-24 17:22:00,11.8,-10.0,30.27,NW,318,9.2,9.2,36,0.00,CLR,,0.00,WeatherDisplay:10.37,2013-01-24 22:22:00,
2013-01-24 17:27:00,11.5,-10.4,30.27,WNW,293,8.1,8.1,36,0.00,CLR,,0.00,WeatherDisplay:10.37,2013-01-24 22:27:00,
2013-01-24 17:32:00,11.3,-10.5,30.27,NW,326,10.4,10.4,36,0.00,CLR,,0.00,WeatherDisplay:10.37,2013-01-24 22:32:00,
2013-01-24 17:37:00,11.3,-10.5,30.27,WNW,297,12.7,12.7,36,0.00,CLR,,0.00,WeatherDisplay:10.37,2013-01-24 22:37:00,
2013-01-24 17:42:00,11.1,-10.7,30.27,WNW,294,8.1,8.1,36,0.00,CLR,,0.00,WeatherDisplay:10.37,2013-01-24 22:42:00,
2013-01-24 17:47:00,11.1,-10.7,30.27,NNW,341,10.5,10.5,36,0.00,CLR,,0.00,WeatherDisplay:10.37,2013-01-24 22:47:00,
2013-01-24 17:52:00,10.9,-10.8,30.27,NW,309,10.4,10.4,36,0.00,CLR,,0.00,WeatherDisplay:10.37,2013-01-24 22:52:00,
2013-01-24 17:57:00,10.8,-11.0,30.27,NW,321,8.1,8.1,36,0.00,CLR,,0.00,WeatherDisplay:10.37,2013-01-24 22:57:00,
2013-01-24 18:02:00,10.4,-11.3,30.27,NW,312,11.5,11.5,36,0.00,CLR,,0.00,WeatherDisplay:10.37,2013-01-24 23:02:00,
2013-01-24 18:07:00,10.2,-11.5,30.30,NW,310,9.2,9.2,36,0.00,CLR,,0.00,WeatherDisplay:10.37,2013-01-24 23:07:00,
2013-01-24 18:12:00,10.0,-11.7,30.30,NW,318,9.2,9.2,36,0.00,CLR,,0.00,WeatherDisplay:10.37,2013-01-24 23:12:00,
2013-01-24 18:17:00,10.0,-11.7,30.30,NW,305,8.1,8.1,36,0.00,CLR,,0.00,WeatherDisplay:10.37,2013-01-24 23:17:00,
2013-01-24 18:22:00,9.9,-11.8,30.30,WNW,302,9.2,9.2,36,0.00,CLR,,0.00,WeatherDisplay:10.37,2013-01-24 23:22:00,
2013-01-24 18:27:00,9.5,-12.1,30.30,NW,320,5.4,5.4,36,0.00,CLR,,0.00,WeatherDisplay:10.37,2013-01-24 23:27:00,
2013-01-24 18:32:00,9.3,-12.3,30.30,NNW,332,8.1,8.1,36,0.00,CLR,,0.00,WeatherDisplay:10.37,2013-01-24 23:32:00,
2013-01-24 18:37:00,9.1,-12.5,30.30,NW,316,5.8,5.8,36,0.00,CLR,,0.00,WeatherDisplay:10.37,2013-01-24 23:37:00,
2013-01-24 18:42:00,9.0,-12.6,30.30,NW,319,8.0,8.0,36,0.00,CLR,,0.00,WeatherDisplay:10.37,2013-01-24 23:42:00,
2013-01-24 18:47:00,8.8,-12.8,30.30,NW,325,11.5,11.5,36,0.00,CLR,,0.00,WeatherDisplay:10.37,2013-01-24 23:47:00,
2013-01-24 18:52:00,9.1,-12.5,30.30,North,350,8.1,8.1,36,0.00,CLR,,0.00,WeatherDisplay:10.37,2013-01-24 23:52:00,
2013-01-24 18:57:00,8.8,-12.8,30.30,NW,315,9.2,9.2,36,0.00,CLR,,0.00,WeatherDisplay:10.37,2013-01-24 23:57:00,
2013-01-24 19:02:00,8.6,-13.0,30.30,North,353,8.1,8.1,36,0.00,CLR,,0.00,WeatherDisplay:10.37,2013-01-25 00:02:00,
2013-01-24 19:07:00,8.6,-13.0,30.33,NW,326,9.2,9.2,36,0.00,CLR,,0.00,WeatherDisplay:10.37,2013-01-25 00:07:00,
2013-01-24 19:12:00,8.4,-13.1,30.33,WNW,294,9.2,9.2,36,0.00,CLR,,0.00,WeatherDisplay:10.37,2013-01-25 00:12:00,
2013-01-24 19:17:00,8.1,-13.4,30.33,WNW,297,9.2,9.2,36,0.00,CLR,,0.00,WeatherDisplay:10.37,2013-01-25 00:17:00,
2013-01-24 19:22:00,8.2,-13.3,30.33,NW,319,8.1,8.1,36,0.00,CLR,,0.00,WeatherDisplay:10.37,2013-01-25 00:22:00,
2013-01-24 19:27:00,8.1,-13.4,30.33,NNW,334,9.2,9.2,36,0.00,CLR,,0.00,WeatherDisplay:10.37,2013-01-25 00:27:00,
2013-01-24 19:32:00,8.1,-13.4,30.33,NW,316,8.1,8.1,36,0.00,CLR,,0.00,WeatherDisplay:10.37,2013-01-25 00:32:00,
2013-01-24 19:37:00,7.9,-13.6,30.33,NW,323,9.2,9.2,36,0.00,CLR,,0.00,WeatherDisplay:10.37,2013-01-25 00:37:00,
2013-01-24 19:42:00,7.9,-13.6,30.33,NNW,335,5.8,5.8,36,0.00,CLR,,0.00,WeatherDisplay:10.37,2013-01-25 00:42:00,
2013-01-24 19:47:00,7.7,-13.8,30.33,NW,312,8.1,8.1,36,0.00,CLR,,0.00,WeatherDisplay:10.37,2013-01-25 00:47:00,
2013-01-24 19:52:00,7.7,-13.8,30.33,NW,313,11.5,11.5,36,0.00,CLR,,0.00,WeatherDisplay:10.37,2013-01-25 00:52:00,
2013-01-24 19:57:00,7.5,-13.9,30.33,NW,322,5.8,5.8,36,0.00,CLR,,0.00,WeatherDisplay:10.37,2013-01-25 00:57:00,
2013-01-24 20:02:00,7.3,-14.1,30.33,NNW,335,10.4,10.4,36,0.00,CLR,,0.00,WeatherDisplay:10.37,2013-01-25 01:02:00,
2013-01-24 20:07:00,7.5,-13.9,30.33,NW,316,10.4,10.4,36,0.00,CLR,,0.00,WeatherDisplay:10.37,2013-01-25 01:07:00,
2013-01-24 20:12:00,7.2,-14.2,30.33,NW,305,8.1,8.1,36,0.00,CLR,,0.00,WeatherDisplay:10.37,2013-01-25 01:12:00,
2013-01-24 20:17:00,7.0,-14.4,30.33,WNW,303,8.1,8.1,36,0.00,CLR,,0.00,WeatherDisplay:10.37,2013-01-25 01:17:00,
2013-01-24 20:22:00,6.8,-14.6,30.33,NW,311,9.2,9.2,36,0.00,CLR,,0.00,WeatherDisplay:10.37,2013-01-25 01:22:00,
2013-01-24 20:27:00,6.8,-14.6,30.33,NW,315,5.8,5.8,36,0.00,CLR,,0.00,WeatherDisplay:10.37,2013-01-25 01:27:00,
2013-01-24 20:32:00,6.6,-14.7,30.33,NW,317,9.2,9.2,36,0.00,CLR,,0.00,WeatherDisplay:10.37,2013-01-25 01:32:00,
2013-01-24 20:37:00,6.4,-14.9,30.30,NNW,329,8.1,8.1,36,0.00,CLR,,0.00,WeatherDisplay:10.37,2013-01-25 01:37:00,
2013-01-24 20:42:00,6.1,-15.2,30.30,WNW,294,9.2,9.2,36,0.00,CLR,,0.00,WeatherDisplay:10.37,2013-01-25 01:42:00,
2013-01-24 20:47:00,5.9,-15.4,30.30,NNW,339,8.1,8.1,36,0.00,CLR,,0.00,WeatherDisplay:10.37,2013-01-25 01:47:00,
2013-01-24 20:52:00,5.9,-15.4,30.30,NW,325,9.2,9.2,36,0.00,CLR,,0.00,WeatherDisplay:10.37,2013-01-25 01:52:00,
2013-01-24 20:57:00,6.1,-15.2,30.30,NNW,329,8.1,8.1,36,0.00,CLR,,0.00,WeatherDisplay:10.37,2013-01-25 01:57:00,
2013-01-24 21:02:00,6.1,-15.2,30.30,NW,308,10.4,10.4,36,0.00,CLR,,0.00,WeatherDisplay:10.37,2013-01-25 02:02:00,
2013-01-24 21:07:00,5.9,-15.4,30.30,NW,325,9.2,9.2,36,0.00,CLR,,0.00,WeatherDisplay:10.37,2013-01-25 02:07:00,
2013-01-24 21:12:00,5.9,-15.4,30.30,NW,322,10.4,10.4,36,0.00,CLR,,0.00,WeatherDisplay:10.37,2013-01-25 02:12:00,
2013-01-24 21:17:00,6.1,-15.2,30.30,NNW,348,10.5,10.5,36,0.00,CLR,,0.00,WeatherDisplay:10.37,2013-01-25 02:17:00,
2013-01-24 21:22:00,6.3,-15.1,30.30,NNW,334,12.7,12.7,36,0.00,CLR,,0.00,WeatherDisplay:10.37,2013-01-25 02:22:00,
2013-01-24 21:27:00,6.3,-15.1,30.30,NNW,339,12.7,12.7,36,0.00,CLR,,0.00,WeatherDisplay:10.37,2013-01-25 02:27:00,
2013-01-24 21:32:00,6.4,-14.9,30.30,NNW,337,12.7,12.7,36,0.00,CLR,,0.00,WeatherDisplay:10.37,2013-01-25 02:32:00,
2013-01-24 21:37:00,6.3,-15.1,30.30,NNW,327,10.4,10.4,36,0.00,CLR,,0.00,WeatherDisplay:10.37,2013-01-25 02:37:00,
2013-01-24 21:42:00,5.9,-15.4,30.30,NW,312,8.1,8.1,36,0.00,CLR,,0.00,WeatherDisplay:10.37,2013-01-25 02:42:00,
2013-01-24 21:47:00,5.9,-15.4,30.30,NW,326,12.7,12.7,36,0.00,CLR,,0.00,WeatherDisplay:10.37,2013-01-25 02:47:00,
2013-01-24 21:52:00,5.7,-15.5,30.30,NW,316,10.4,10.4,36,0.00,CLR,,0.00,WeatherDisplay:10.37,2013-01-25 02:52:00,
2013-01-24 21:57:00,5.7,-15.5,30.30,North,357,9.2,9.2,36,0.00,CLR,,0.00,WeatherDisplay:10.37,2013-01-25 02:57:00,
2013-01-24 22:02:00,5.5,-15.7,30.30,North,5,8.3,8.3,36,0.00,CLR,,0.00,WeatherDisplay:10.37,2013-01-25 03:02:00,
2013-01-24 22:07:00,5.5,-15.7,30.30,NW,314,5.8,5.8,36,0.00,CLR,,0.00,WeatherDisplay:10.37,2013-01-25 03:07:00,
2013-01-24 22:12:00,5.4,-15.9,30.30,NW,320,5.8,5.8,36,0.00,CLR,,0.00,WeatherDisplay:10.37,2013-01-25 03:12:00,
2013-01-24 22:17:00,4.8,-16.3,30.30,NW,312,0.0,0.0,36,0.00,CLR,,0.00,WeatherDisplay:10.37,2013-01-25 03:17:00,
2013-01-24 22:22:00,4.3,-16.8,30.30,WNW,301,4.0,0.0,36,0.00,CLR,,0.00,WeatherDisplay:10.37,2013-01-25 03:22:00,
2013-01-24 22:27:00,4.1,-17.0,30.30,NNW,335,5.8,5.8,36,0.00,CLR,,0.00,WeatherDisplay:10.37,2013-01-25 03:27:00,
2013-01-24 22:32:00,3.6,-17.5,30.30,NNW,343,5.8,0.0,36,0.00,CLR,,0.00,WeatherDisplay:10.37,2013-01-25 03:32:00,
2013-01-24 22:37:00,3.0,-18.0,30.30,NNW,337,5.8,5.8,36,0.00,CLR,,0.00,WeatherDisplay:10.37,2013-01-25 03:37:00,
2013-01-24 22:42:00,3.0,-18.0,30.30,NW,326,3.6,3.6,36,0.00,CLR,,0.00,WeatherDisplay:10.37,2013-01-25 03:42:00,
2013-01-24 22:47:00,3.2,-17.8,30.30,NNW,334,5.8,5.8,36,0.00,CLR,,0.00,WeatherDisplay:10.37,2013-01-25 03:47:00,
2013-01-24 22:52:00,3.6,-17.5,30.30,NNW,330,5.8,5.8,36,0.00,CLR,,0.00,WeatherDisplay:10.37,2013-01-25 03:52:00,
2013-01-24 22:57:00,4.1,-17.0,30.30,NNW,334,5.8,5.8,36,0.00,CLR,,0.00,WeatherDisplay:10.37,2013-01-25 03:57:00,
2013-01-24 23:02:00,3.7,-17.3,30.30,NW,326,5.8,5.8,36,0.00,CLR,,0.00,WeatherDisplay:10.37,2013-01-25 04:02:00,
2013-01-24 23:07:00,3.7,-17.3,30.30,NW,322,5.8,5.8,36,0.00,CLR,,0.00,WeatherDisplay:10.37,2013-01-25 04:07:00,
2013-01-24 23:12:00,3.7,-17.3,30.30,NNE,15,4.6,4.6,36,0.00,CLR,,0.00,WeatherDisplay:10.37,2013-01-25 04:12:00,
2013-01-24 23:17:00,3.7,-17.3,30.30,NNW,344,5.8,5.8,36,0.00,CLR,,0.00,WeatherDisplay:10.37,2013-01-25 04:17:00,
2013-01-24 23:22:00,3.2,-17.8,30.30,NW,316,2.7,0.0,36,0.00,CLR,,0.00,WeatherDisplay:10.37,2013-01-25 04:22:00,
2013-01-24 23:27:00,2.7,-18.3,30.30,NW,316,3.5,3.5,36,0.00,CLR,,0.00,WeatherDisplay:10.37,2013-01-25 04:27:00,
2013-01-24 23:32:00,2.1,-18.8,30.30,NW,316,0.0,0.0,36,0.00,CLR,,0.00,WeatherDisplay:10.37,2013-01-25 04:32:00,
2013-01-24 23:37:00,1.8,-19.1,30.30,NW,316,3.5,3.5,36,0.00,CLR,,0.00,WeatherDisplay:10.37,2013-01-25 04:37:00,
2013-01-24 23:42:00,1.6,-19.3,30.30,NW,316,0.0,0.0,36,0.00,CLR,,0.00,WeatherDisplay:10.37,2013-01-25 04:42:00,
2013-01-24 23:48:00,1.6,-19.3,30.30,NW,316,0.0,0.0,36,0.00,CLR,,0.00,WeatherDisplay:10.37,2013-01-25 04:48:00,
2013-01-24 23:53:00,1.6,-19.3,30.30,NW,316,0.0,0.0,36,0.00,CLR,,0.00,WeatherDisplay:10.37,2013-01-25 04:53:00,
2013-01-24 23:58:00,1.6,-19.3,30.30,NW,316,0.0,0.0,36,0.00,CLR,,0.00,WeatherDisplay:10.37,2013-01-25 04:58:00,